Malone, Texas
Current Conditions -  °F | °C
As of 9:55 AM on Thursday 27 Nov 2014 (Local Time) from KINJ Reporting Station
Haze Haze  
Wind Chill: 43°   Ceiling: Unl
Heat Index: 48°   Visibility: 4mi
Dew Point: 25°   Wind: 12mph
Humidity: 41%   Direction: 40°NE
Pressure: 30.54"   Gusts: NA
Location:  31.92°N, 96.89°W
Report Text: KINJ 271555Z AUTO 04010KT 4SM HZ CLR 09/M04 A3054 RMK AO2 T00901037
Loading
Personal Weather Stations






























Interactive Weather Map New forecast layout! Learn more

10-Day Weather Forecast

Advertisements
Track Severe Weather on mobile